Hinsdale, MT (59241)

11:58 PM MDT on July 28, 2016 (GMT -0600)
West Glasgow | | Change Station

Elev 2172 ft 48.22 °N, 106.65 °W | Updated 4 seconds ago

Clear
Clear
65.3 °F
Feels Like 65.3 °F
N
0.0
Wind Variable Wind from SSW
Gusts 0.0 mph

Today
High -- | Low -- °F
--% Chance of Precip.
Yesterday
High -- | Low -- °F
Precip. -- in
Pressure 30.08 in
Visibility 10.0 miles
Clouds Clear
Dew Point 60 °F
Humidity 84%
Rainfall 0.00 in
Snow Depth Not available.
5:38 AM 8:49 PM
Waning Crescent, 25% visible
METAR KGGW 290553Z AUTO 08008KT 10SM CLR 17/13 A3010 RMK AO2 SLP185 T01670128 10261 20167 56001
Pressure 30.08 in
Visibility 10.0 miles
Clouds Clear
Dew Point 60 °F
Humidity 84%
Rainfall 0.00 in
Snow Depth Not available.
5:38 AM 8:49 PM
Waning Crescent, 25% visible
METAR KGGW 290553Z AUTO 08008KT 10SM CLR 17/13 A3010 RMK AO2 SLP185 T01670128 10261 20167 56001

10-Day Weather Forecast

Almanac

Astronomy

Jul. 28, 2016 Rise Set
Actual Time
Civil Twilight
Nautical Twilight
Astronomical Twilight
Moon
Length of Visible Light
Length of Day
Tomorrow will be .
, % of the Moon is Illuminated

Today's Extremes

State Highs State Lows

Community

WunderPhotos

Upload Photos

1,928,299 photos uploaded!

WunderBlog® & News

Nearby

Air Quality

  Air Quality AQ Index Pollutant
Not available.

Snow Depth

Station Depth Elevation

Earthquake Activity

City Distance Mag. Time & Date
Minimum magnitude displayed is 2.5.

Coastal Water Temperatures

Place Temperature

Stations

Nearby Weather Stations

Station Location Temp. Windchill Dew Point Humidity Wind Precip. Elev Updated Type
                   

Watches & Warnings

There are currently no watches in effect.